METAR (acronimo di METeorological Air Report) è un messaggio meteo emesso nella maggior parte dei casi in ambito aeroportuale

LEMD - Madrid-Barajas, Spagna
Ultimo Aggiornamento: Mercoledì 25 Novembre 2020 20:00 CET
Pioggia Leggera, Prevalentemente Nuvoloso
Pioggia Leggera, Prevalentemente Nuvoloso
 Wind from calm
Vento: Calma
Temperatura: 10°C
Punto di Rugiada: 7°C
Umidità: 82%
Barometro: 1012 hPa
Condizioni: Pioggia Leggera
Nuvole: Prevalentemente Nuvoloso
Visibilità: 10 km
Nuvole nel Dettaglio: Parzialmente Nuvoloso 1219 m
Prevalentemente Nuvoloso 1524 m
2020/11/25 19:00 LEMD 251900Z 00000KT 9999 -RA SCT040 BKN050 10/07 Q1012 TEMPO 4000 RA BKN020
LPPT - Lisbona, Portogallo
Ultimo Aggiornamento: Mercoledì 25 Novembre 2020 20:00 CET
Qualche Nuvola
Qualche Nuvola
 Wind from Sud-Est
Vento: Sud-Est 7 km/h
Temperatura: 12°C
Punto di Rugiada: 11°C
Umidità: 94%
Barometro: 1006 hPa
Nuvole: Qualche Nuvola
Visibilità: 10 km
Nuvole nel Dettaglio: Qualche Nuvola 366 m
Qualche Nuvola 914 m
2020/11/25 19:00 LPPT 251900Z 14004KT 9999 FEW012 FEW030CB 12/11 Q1006
LFPG - Parigi Charles de Gaulle, Francia
Ultimo Aggiornamento: Mercoledì 25 Novembre 2020 20:00 CET
Sereno
Sereno
 Wind from Sud-Est
Vento: Sud-Est 11 km/h
Temperatura: 8°C
Wind Chill: 6°C
Punto di Rugiada: 6°C
Umidità: 87%
Barometro: 1018 hPa
Condizioni: Sereno
Visibilità: superiore a 10 km
2020/11/25 19:00 LFPG 251900Z 14006KT CAVOK 08/06 Q1018 NOSIG
 
LSZB - Berna, Svizzera
Ultimo Aggiornamento: Mercoledì 25 Novembre 2020 19:50 CET
Bruma, Nuvoloso
Bruma, Nuvoloso
 Wind from varies
Vento: variabile 6 km/h
Temperatura: 1°C
Punto di Rugiada: 1°C
Umidità: 100%
Barometro: 1022 hPa
Condizioni: Bruma
Nuvole: Nuvoloso
Visibilità: 3 km
Nuvole nel Dettaglio: Qualche Nuvola 30 m
Nuvoloso 61 m
2020/11/25 18:50 LSZB 251850Z VRB03KT 2500 BR FEW001 OVC002 01/01 Q1022 NOSIG
LOWW - Vienna-Schwechat, Austria
Ultimo Aggiornamento: Mercoledì 25 Novembre 2020 19:50 CET
Prevalentemente Nuvoloso
Prevalentemente Nuvoloso
 Wind from Sud
Vento: Sud 20 km/h
Temperatura: 2°C
Wind Chill: -3°C
Punto di Rugiada: -1°C
Umidità: 81%
Barometro: 1025 hPa
Nuvole: Prevalentemente Nuvoloso
Visibilità: 10 km
Nuvole nel Dettaglio: Qualche Nuvola 244 m
Prevalentemente Nuvoloso 305 m
2020/11/25 18:50 LOWW 251850Z 17011KT 9999 FEW008 BKN010 02/M01 Q1025 TEMPO OVC009
LKPR - Praga-Ruzyne, Repubblica Ceca
Ultimo Aggiornamento: Mercoledì 25 Novembre 2020 20:00 CET
Nuvoloso
Nuvoloso
 Wind from Sud
Vento: Sud 7 km/h
Temperatura: -1°C
Wind Chill: -4°C
Punto di Rugiada: -2°C
Umidità: 93%
Barometro: 1023 hPa
Nuvole: Nuvoloso
Visibilità: 10 km
Nuvole nel Dettaglio: Nuvoloso 244 m
2020/11/25 19:00 LKPR 251900Z 17004KT 9999 OVC008 M01/M02 Q1023 NOSIG
 
LHBP - Budapest-Ferihegy, Ungheria
Ultimo Aggiornamento: Mercoledì 25 Novembre 2020 20:00 CET
Pioviggine, Bruma, Nuvoloso
Pioviggine, Bruma, Nuvoloso
 Wind from Sud
Vento: Sud 6 km/h
Temperatura: 2°C
Punto di Rugiada: 1°C
Umidità: 93%
Barometro: 1027 hPa
Condizioni: Pioviggine, Bruma
Nuvole: Nuvoloso
Visibilità: 5 km
Nuvole nel Dettaglio: Nuvoloso 183 m
2020/11/25 19:00 LHBP 251900Z 18003KT 150V210 4500 -DZ BR OVC006 02/01 Q1027 NOSIG
UUEE - Mosca-Seremetevo, Russia
Ultimo Aggiornamento: Mercoledì 25 Novembre 2020 20:00 CET
Nuvoloso
Nuvoloso
 Wind from Nord-Ovest
Vento: Nord-Ovest 11 km/h
Temperatura: 0°C
Wind Chill: -4°C
Punto di Rugiada: -1°C
Umidità: 93%
Barometro: 1017 hPa
Nuvole: Nuvoloso
Visibilità: 10 km
Nuvole nel Dettaglio: Parzialmente Nuvoloso 244 m
Nuvoloso 1341 m
2020/11/25 19:00 UUEE 251900Z 32003MPS 280V360 9999 SCT008 OVC044 00/M01 Q1017 R24L/290051 R24R/290051 NOSIG
EYVI - Vilnius, Lituania
Ultimo Aggiornamento: Mercoledì 25 Novembre 2020 19:50 CET
Bruma, Nuvoloso
Bruma, Nuvoloso
 Wind from Sud-Ovest
Vento: Sud-Ovest 11 km/h
Temperatura: 6°C
Wind Chill: 4°C
Punto di Rugiada: 6°C
Umidità: 100%
Barometro: 1020 hPa
Condizioni: Bruma
Nuvole: Nuvoloso
Visibilità: 4 km
Nuvole nel Dettaglio: Nuvoloso 30 m
2020/11/25 18:50 EYVI 251850Z 22006KT 4100 BR OVC001 06/06 Q1020 R01/2///95 NOSIG
 
EVRA - Riga, Lettonia
Ultimo Aggiornamento: Mercoledì 25 Novembre 2020 19:50 CET
Prevalentemente Nuvoloso
Prevalentemente Nuvoloso
 Wind from Sud
Vento: Sud 7 km/h
Temperatura: 7°C
Wind Chill: 6°C
Punto di Rugiada: 6°C
Umidità: 93%
Barometro: 1016 hPa
Nuvole: Prevalentemente Nuvoloso
Visibilità: 10 km
Nuvole nel Dettaglio: Prevalentemente Nuvoloso 427 m
2020/11/25 18:50 EVRA 251850Z 19004KT 9999 BKN014 07/06 Q1016 R18/290195 NOSIG
EETN - Tallinn, Estonia
Ultimo Aggiornamento: Mercoledì 25 Novembre 2020 19:50 CET
Nuvoloso
Nuvoloso
 Wind from Ovest-Sud-Ovest
Vento: Ovest-Sud-Ovest 15 km/h
Temperatura: 8°C
Wind Chill: 5°C
Punto di Rugiada: 7°C
Umidità: 93%
Barometro: 1011 hPa
Nuvole: Nuvoloso
Visibilità: 10 km
Nuvole nel Dettaglio: Prevalentemente Nuvoloso 213 m
Nuvoloso 518 m
2020/11/25 18:50 EETN 251850Z 24008KT 9999 BKN007 OVC017 08/07 Q1011 R08/290195 NOSIG
EKCH - Copenaghen, Danimarca
Ultimo Aggiornamento: Mercoledì 25 Novembre 2020 19:50 CET
Prevalentemente Nuvoloso
Prevalentemente Nuvoloso
 Wind from Sud-Sud-Ovest
Vento: Sud-Sud-Ovest 15 km/h
Temperatura: 5°C
Wind Chill: 2°C
Punto di Rugiada: 5°C
Umidità: 100%
Barometro: 1016 hPa
Nuvole: Prevalentemente Nuvoloso
Visibilità: 8 km
Nuvole nel Dettaglio: Prevalentemente Nuvoloso 213 m
2020/11/25 18:50 EKCH 251850Z 21008KT 8000 BKN007 05/05 Q1016 NOSIG
 
ESSA - Stockholm Arlanda, Svezia
Ultimo Aggiornamento: Mercoledì 25 Novembre 2020 19:50 CET
Sereno
Sereno
 Wind from Sud-Ovest
Vento: Sud-Ovest 22 km/h
Temperatura: 7°C
Wind Chill: 4°C
Punto di Rugiada: 4°C
Umidità: 81%
Barometro: 1008 hPa
Condizioni: Sereno
Visibilità: superiore a 10 km
2020/11/25 18:50 ESSA 251850Z 22012KT CAVOK 07/04 Q1008 R01R/19//95 R08/19//95 NOSIG
EDDT - Berlin Tegel, Germania
Ultimo Aggiornamento: Lunedì 09 Novembre 2020 07:50 CET
Dati non Recenti
Bruma, Nuvoloso
Bruma, Nuvoloso
 Wind from Est
Vento: Est 11 km/h
Temperatura: 6°C
Wind Chill: 4°C
Punto di Rugiada: 5°C
Umidità: 93%
Barometro: 1027 hPa
Condizioni: Bruma
Nuvole: Nuvoloso
Visibilità: 3 km
Nuvole nel Dettaglio: Nuvoloso 91 m
2020/11/09 06:50 EDDT 090650Z 09006KT 050V120 3000 BR OVC003 06/05 Q1027
EGLL - Londra-Heathrow, Inghilterra
Ultimo Aggiornamento: Mercoledì 25 Novembre 2020 19:50 CET
Qualche Nuvola
Qualche Nuvola
 Wind from varies
Vento: variabile 6 km/h
Temperatura: 8°C
Punto di Rugiada: 6°C
Umidità: 87%
Barometro: 1017 hPa
Nuvole: Qualche Nuvola
Visibilità: 10 km
Nuvole nel Dettaglio: Qualche Nuvola 1219 m
2020/11/25 18:50 EGLL 251850Z AUTO VRB03KT 9999 FEW040 08/06 Q1017 NOSIG
 
EGPH - Edinburgh, Scotland
Ultimo Aggiornamento: Mercoledì 25 Novembre 2020 19:50 CET
Qualche Nuvola
Qualche Nuvola
 Wind from Ovest-Sud-Ovest
Vento: Ovest-Sud-Ovest 6 km/h
Temperatura: 5°C
Punto di Rugiada: 5°C
Umidità: 100%
Barometro: 1013 hPa
Nuvole: Qualche Nuvola
Visibilità: 10 km
Nuvole nel Dettaglio: Qualche Nuvola 1128 m
2020/11/25 18:50 EGPH 251850Z 25003KT 9999 FEW037 05/05 Q1013
EPWA - Varsavia-Chopin, Polonia
Ultimo Aggiornamento: Mercoledì 25 Novembre 2020 20:00 CET
Parzialmente Nuvoloso
Parzialmente Nuvoloso
 Wind from Sud
Vento: Sud 7 km/h
Temperatura: 0°C
Wind Chill: -3°C
Punto di Rugiada: -2°C
Umidità: 87%
Barometro: 1022 hPa
Nuvole: Parzialmente Nuvoloso
Visibilità: 7 km
2020/11/25 19:00 EPWA 251900Z 18004KT 7000 NSC M00/M02 Q1022 NOSIG
ENGM - Oslo-Gardermoen, Norvegia
Ultimo Aggiornamento: Mercoledì 25 Novembre 2020 19:50 CET
Sereno
Sereno
 Wind from Sud-Ovest
Vento: Sud-Ovest 6 km/h
Temperatura: 8°C
Punto di Rugiada: 4°C
Umidità: 76%
Barometro: 1006 hPa
Condizioni: Sereno
Visibilità: superiore a 10 km
2020/11/25 18:50 ENGM 251850Z 23003KT 210V290 CAVOK 08/04 Q1006 NOSIG
 
LJLJ - Ljubljana Joze Pucnik, Slovenia
Ultimo Aggiornamento: Mercoledì 25 Novembre 2020 20:00 CET
Nebbia Gelata, Nuvoloso
Nebbia Gelata, Nuvoloso
 Wind from Sud-Est
Vento: Sud-Est 6 km/h
Temperatura: -2°C
Punto di Rugiada: -2°C
Umidità: 100%
Barometro: 1025 hPa
Condizioni: Nebbia Gelata
Nuvole: Nuvoloso
Visibilità: 0 km
Nuvole nel Dettaglio: Nuvoloso 30 m
2020/11/25 19:00 LJLJ 251900Z 14003KT 0200 R30/0250N FZFG VV001 M02/M02 Q1025 NOSIG
LYBE - Belgrado-Nikola Tesla, Serbia
Ultimo Aggiornamento: Mercoledì 25 Novembre 2020 20:00 CET
Bruma, Parzialmente Nuvoloso
Bruma, Parzialmente Nuvoloso
 Wind from Nord-Est
Vento: Nord-Est 7 km/h
Temperatura: 1°C
Wind Chill: -2°C
Punto di Rugiada: 1°C
Umidità: 100%
Barometro: 1027 hPa
Condizioni: Bruma
Nuvole: Parzialmente Nuvoloso
Visibilità: 4 km
2020/11/25 19:00 LYBE 251900Z 05004KT 3500 BR NSC 01/01 Q1027 BECMG 2500
LDZA - Zagabria-Franjo Tudman, Croazia
Ultimo Aggiornamento: Mercoledì 25 Novembre 2020 20:00 CET
Nuvoloso
Nuvoloso
 Wind from Sud-Sud-Ovest
Vento: Sud-Sud-Ovest 7 km/h
Temperatura: 2°C
Wind Chill: 0°C
Punto di Rugiada: 0°C
Umidità: 87%
Barometro: 1027 hPa
Nuvole: Nuvoloso
Visibilità: 10 km
Nuvole nel Dettaglio: Qualche Nuvola 213 m
Nuvoloso 335 m
2020/11/25 19:00 LDZA 251900Z 21004KT 170V250 9999 FEW007 OVC011 02/M00 Q1027 NOSIG
 
LQSA - Sarajevo, Bosnia-Erzegovina
Ultimo Aggiornamento: Mercoledì 25 Novembre 2020 20:00 CET
Bruma, Parzialmente Nuvoloso
Bruma, Parzialmente Nuvoloso
 Wind from varies
Vento: variabile 4 km/h
Temperatura: -2°C
Punto di Rugiada: -2°C
Umidità: 100%
Barometro: 1024 hPa
Condizioni: Bruma
Nuvole: Parzialmente Nuvoloso
Visibilità: 5 km
2020/11/25 19:00 LQSA 251900Z VRB02KT 5000 BR NSC M02/M02 Q1024 NOSIG
LATI - Tirana, Albania
Ultimo Aggiornamento: Mercoledì 25 Novembre 2020 19:50 CET
Sereno
Sereno
 Wind from Sud
Vento: Sud 7 km/h
Temperatura: 5°C
Wind Chill: 3°C
Punto di Rugiada: 2°C
Umidità: 81%
Barometro: 1023 hPa
Condizioni: Sereno
Visibilità: superiore a 10 km
2020/11/25 18:50 LATI 251850Z 17004KT CAVOK 05/02 Q1023 NOSIG
LEPA - Palma de Mallorca, Spagna
Ultimo Aggiornamento: Mercoledì 25 Novembre 2020 20:00 CET
Parzialmente Nuvoloso
Parzialmente Nuvoloso
 Wind from Est-Nord-Est
Vento: Est-Nord-Est 11 km/h
Temperatura: 14°C
Punto di Rugiada: 9°C
Umidità: 72%
Barometro: 1017 hPa
Nuvole: Parzialmente Nuvoloso
Visibilità: 10 km
Nuvole nel Dettaglio: Qualche Nuvola 1219 m
Parzialmente Nuvoloso 1524 m
2020/11/25 19:00 LEPA 251900Z 06006KT 9999 FEW040 SCT050 14/09 Q1017 NOSIG
 
GCLP - Gran Canaria, Spagna
Ultimo Aggiornamento: Mercoledì 25 Novembre 2020 20:00 CET
Parzialmente Nuvoloso
Parzialmente Nuvoloso
 Wind from Nord
Vento: Nord 35 km/h
Temperatura: 19°C
Punto di Rugiada: 16°C
Umidità: 83%
Barometro: 1018 hPa
Nuvole: Parzialmente Nuvoloso
Visibilità: 10 km
Nuvole nel Dettaglio: Parzialmente Nuvoloso 762 m
2020/11/25 19:00 GCLP 251900Z 36019KT 9999 SCT025 19/16 Q1018 NOSIG
LXGB - Gibraltar International Airport
Ultimo Aggiornamento: Mercoledì 25 Novembre 2020 19:50 CET
Prevalentemente Nuvoloso
Prevalentemente Nuvoloso
 Wind from Est-Nord-Est
Vento: Est-Nord-Est 6 km/h
Temperatura: 14°C
Punto di Rugiada: 13°C
Umidità: 94%
Barometro: 1011 hPa
Nuvole: Prevalentemente Nuvoloso
Visibilità: 10 km
Nuvole nel Dettaglio: Qualche Nuvola 701 m
Prevalentemente Nuvoloso 2438 m
2020/11/25 18:50 LXGB 251850Z AUTO 07003KT 9999 FEW023/// BKN080/// 14/13 Q1011
LGAV - Atene-Eleftherios Venizelos, Grecia
Ultimo Aggiornamento: Mercoledì 25 Novembre 2020 19:50 CET
Parzialmente Nuvoloso
Parzialmente Nuvoloso
 Wind from Nord
Vento: Nord 30 km/h
Temperatura: 13°C
Punto di Rugiada: 3°C
Umidità: 51%
Barometro: 1021 hPa
Nuvole: Parzialmente Nuvoloso
Visibilità: 10 km
Nuvole nel Dettaglio: Qualche Nuvola 762 m
Parzialmente Nuvoloso 1067 m
2020/11/25 18:50 LGAV 251850Z 01016KT 9999 FEW025 SCT035 13/03 Q1021 NOSIG